Time;durP1;ratioP1;P1;durP2;ratioP2;P2;SDS_P1;SDS_P2;PMS_P1;PMS_P2;Temp;Humidity;BMP_temperature;BMP_pressure;BME280_temperature;BME280_humidity;BME280_pressure;Samples;Min_cycle;Max_cycle;Signal;HPM_P1;HPM_P2
2021/09/03 00:01:26;;;;;;;30.80;19.77;;;12.80;96.70;;;;;;4992801;28;20157;-71
2021/09/03 00:03:52;;;;;;;33.07;20.47;;;12.80;96.70;;;;;;4991197;28;20062;-70
2021/09/03 00:06:18;;;;;;;32.63;20.27;;;12.80;96.80;;;;;;4993153;28;20049;-71
2021/09/03 00:08:43;;;;;;;26.80;17.23;;;12.80;96.80;;;;;;4993222;28;20045;-71
2021/09/03 00:11:09;;;;;;;32.90;20.20;;;12.80;96.70;;;;;;4992378;28;20042;-71
2021/09/03 00:13:34;;;;;;;30.27;19.73;;;12.80;96.70;;;;;;4993170;28;20050;-71
2021/09/03 00:16:01;;;;;;;31.30;19.17;;;12.70;96.70;;;;;;4993123;28;20510;-71
2021/09/03 00:18:26;;;;;;;27.27;16.80;;;12.80;96.80;;;;;;4990446;28;20258;-71
2021/09/03 00:20:52;;;;;;;22.10;16.27;;;12.70;96.70;;;;;;4993351;28;20129;-71
2021/09/03 00:23:17;;;;;;;26.83;17.93;;;12.70;96.60;;;;;;4992659;28;20046;-71
2021/09/03 00:25:43;;;;;;;28.30;18.70;;;12.70;96.70;;;;;;4992190;28;20443;-71
2021/09/03 00:28:08;;;;;;;32.13;19.33;;;12.70;96.70;;;;;;4992535;28;20042;-71
2021/09/03 00:30:34;;;;;;;34.30;18.90;;;12.70;96.70;;;;;;4992770;28;20495;-71
2021/09/03 00:32:59;;;;;;;28.97;18.73;;;12.70;96.70;;;;;;4991068;28;20165;-71
2021/09/03 00:35:25;;;;;;;29.93;19.83;;;12.60;96.70;;;;;;4992242;28;20054;-71
2021/09/03 00:37:50;;;;;;;29.63;17.77;;;12.60;96.70;;;;;;4992909;28;20129;-71
2021/09/03 00:40:16;;;;;;;29.40;19.23;;;12.60;96.80;;;;;;4990460;28;20046;-71
2021/09/03 00:42:42;;;;;;;28.67;17.63;;;12.60;96.80;;;;;;4991118;28;20050;-71
2021/09/03 00:45:08;;;;;;;22.27;15.70;;;12.50;96.80;;;;;;4990423;28;20042;-71
2021/09/03 00:47:34;;;;;;;28.63;19.30;;;12.50;96.70;;;;;;4992463;28;20050;-71
2021/09/03 00:49:59;;;;;;;26.10;18.00;;;12.50;96.80;;;;;;4992732;28;20045;-71
2021/09/03 00:52:25;;;;;;;37.87;21.77;;;12.50;96.80;;;;;;4991434;28;20425;-71
2021/09/03 00:54:53;;;;;;;31.90;20.53;;;12.50;96.80;;;;;;4991123;28;20100;-71
2021/09/03 00:57:19;;;;;;;26.47;18.23;;;12.50;97.00;;;;;;4992110;28;20057;-71
2021/09/03 00:59:45;;;;;;;32.07;18.80;;;12.50;96.90;;;;;;4990410;28;20046;-71
2021/09/03 01:02:11;;;;;;;34.20;19.33;;;12.50;96.90;;;;;;4991998;28;20041;-71
2021/09/03 01:04:36;;;;;;;28.43;18.97;;;12.40;96.90;;;;;;4992687;28;20475;-71
2021/09/03 01:07:02;;;;;;;27.47;18.57;;;12.40;96.90;;;;;;4991888;28;20418;-71
2021/09/03 01:09:28;;;;;;;27.50;17.90;;;12.40;96.90;;;;;;4992150;28;20125;-71
2021/09/03 01:11:53;;;;;;;33.17;20.87;;;12.30;96.80;;;;;;4991323;28;20406;-71
2021/09/03 01:14:19;;;;;;;32.40;20.63;;;12.30;96.90;;;;;;4991252;28;20077;-71
2021/09/03 01:16:44;;;;;;;32.13;19.87;;;12.30;97.00;;;;;;4992228;28;20097;-71
2021/09/03 01:19:10;;;;;;;33.63;20.03;;;12.30;97.00;;;;;;4991956;28;20042;-71
2021/09/03 01:21:36;;;;;;;28.37;17.37;;;12.30;97.00;;;;;;4991683;28;20041;-71
2021/09/03 01:24:02;;;;;;;33.87;21.17;;;12.20;97.00;;;;;;4992300;28;20046;-71
2021/09/03 01:26:28;;;;;;;30.37;18.40;;;12.20;97.10;;;;;;4991704;28;20455;-71
2021/09/03 01:28:53;;;;;;;33.13;19.30;;;12.20;97.10;;;;;;4991362;28;20125;-71
2021/09/03 01:31:19;;;;;;;24.17;17.13;;;12.20;97.10;;;;;;4991829;28;20038;-71
2021/09/03 01:33:44;;;;;;;24.40;17.10;;;12.20;97.00;;;;;;4990551;28;20052;-71
2021/09/03 01:36:10;;;;;;;30.10;18.40;;;12.20;97.00;;;;;;4991203;28;20454;-70
2021/09/03 01:38:37;;;;;;;32.30;19.40;;;12.10;97.00;;;;;;4992135;28;20046;-71
2021/09/03 01:41:03;;;;;;;30.33;18.00;;;12.10;97.10;;;;;;4992071;28;20069;-71
2021/09/03 01:43:28;;;;;;;30.50;18.77;;;12.10;97.10;;;;;;4991162;28;20130;-71
2021/09/03 01:45:54;;;;;;;29.53;18.77;;;12.10;97.10;;;;;;4995565;28;20157;-71
2021/09/03 01:48:20;;;;;;;28.67;19.47;;;12.00;97.10;;;;;;4994811;28;20038;-71
2021/09/03 01:50:46;;;;;;;28.80;17.57;;;12.00;97.10;;;;;;4994288;28;20050;-71
2021/09/03 01:53:12;;;;;;;29.87;18.57;;;12.00;97.10;;;;;;4995291;28;20050;-70
2021/09/03 01:55:37;;;;;;;29.70;18.90;;;12.00;97.10;;;;;;4993821;28;20038;-71
2021/09/03 01:58:03;;;;;;;30.30;18.50;;;12.00;97.10;;;;;;4994201;28;20499;-70
2021/09/03 02:00:28;;;;;;;24.47;17.30;;;12.00;97.20;;;;;;4995105;28;20454;-70
2021/09/03 02:02:54;;;;;;;27.50;18.47;;;11.90;97.10;;;;;;4994782;28;20376;-71
2021/09/03 02:05:20;;;;;;;28.27;18.23;;;11.90;97.10;;;;;;4995112;28;20117;-70
2021/09/03 02:07:45;;;;;;;29.90;17.80;;;11.90;97.20;;;;;;4995451;28;20554;-70
2021/09/03 02:10:11;;;;;;;22.80;16.47;;;11.90;97.10;;;;;;4993171;28;20066;-71
2021/09/03 02:12:37;;;;;;;27.70;17.27;;;11.90;97.10;;;;;;4993828;28;20081;-71
2021/09/03 02:15:03;;;;;;;27.13;17.13;;;11.90;97.10;;;;;;4994140;28;20480;-70
2021/09/03 02:17:32;;;;;;;27.97;18.40;;;11.90;97.50;;;;;;4992719;28;20045;-72
2021/09/03 02:19:57;;;;;;;27.70;17.70;;;11.80;97.20;;;;;;4995162;28;20054;-71
2021/09/03 02:22:23;;;;;;;28.77;16.77;;;11.80;97.20;;;;;;4994618;28;20091;-71
2021/09/03 02:24:48;;;;;;;30.27;19.20;;;11.80;97.30;;;;;;4994568;28;20085;-70
2021/09/03 02:27:14;;;;;;;30.60;20.00;;;11.80;97.20;;;;;;4993406;28;20535;-71
2021/09/03 02:29:40;;;;;;;31.30;19.17;;;11.80;97.30;;;;;;4993857;28;20073;-71
2021/09/03 02:32:05;;;;;;;26.53;18.43;;;11.80;97.30;;;;;;4994500;28;20034;-70
2021/09/03 02:34:31;;;;;;;31.73;19.37;;;11.80;97.30;;;;;;4994428;28;20137;-71
2021/09/03 02:36:56;;;;;;;32.33;18.77;;;11.70;97.30;;;;;;4994907;28;20144;-70
2021/09/03 02:39:22;;;;;;;30.07;17.67;;;11.70;97.30;;;;;;4992431;28;20050;-71
2021/09/03 02:41:47;;;;;;;28.90;17.10;;;11.70;97.70;;;;;;4993590;28;20049;-70
2021/09/03 02:44:13;;;;;;;28.87;16.73;;;11.70;97.30;;;;;;4992880;28;20121;-71
2021/09/03 02:46:39;;;;;;;25.70;16.80;;;11.70;97.30;;;;;;4992832;28;20057;-71
2021/09/03 02:49:04;;;;;;;24.13;16.07;;;11.60;97.10;;;;;;4994601;28;20039;-71
2021/09/03 02:51:30;;;;;;;24.53;17.40;;;11.60;97.20;;;;;;4994257;28;20471;-70
2021/09/03 02:53:55;;;;;;;30.13;17.50;;;11.50;97.20;;;;;;4992451;28;20050;-71
2021/09/03 02:56:21;;;;;;;29.47;17.90;;;11.50;97.20;;;;;;4993208;28;20129;-71
2021/09/03 02:58:47;;;;;;;29.43;17.47;;;11.40;97.30;;;;;;4992313;28;20050;-71
2021/09/03 03:01:12;;;;;;;24.73;15.93;;;11.40;97.50;;;;;;4992647;28;20053;-71
2021/09/03 03:03:38;;;;;;;24.57;16.27;;;11.40;97.70;;;;;;4994654;28;20053;-70
2021/09/03 03:06:03;;;;;;;25.97;16.37;;;11.30;97.70;;;;;;4993627;28;20436;-71
2021/09/03 03:08:29;;;;;;;22.50;14.27;;;11.30;97.80;;;;;;4993060;28;20138;-71
2021/09/03 03:10:55;;;;;;;24.83;14.23;;;11.30;97.70;;;;;;4993089;28;20078;-70
2021/09/03 03:13:25;;;;;;;22.70;13.97;;;11.30;97.80;;;;;;4992892;28;20495;-71
2021/09/03 03:15:53;;;;;;;23.92;15.35;;;11.30;97.70;;;;;;4994287;28;20050;-71
2021/09/03 03:18:19;;;;;;;21.53;14.37;;;11.20;97.70;;;;;;4992566;28;20070;-70
2021/09/03 03:20:46;;;;;;;21.47;13.83;;;11.20;97.70;;;;;;4993550;28;20043;-70
2021/09/03 03:23:11;;;;;;;26.63;14.63;;;11.20;97.70;;;;;;4993372;28;20053;-71
2021/09/03 03:25:37;;;;;;;33.73;18.23;;;11.20;97.70;;;;;;4992684;28;20371;-70
2021/09/03 03:28:03;;;;;;;44.47;20.67;;;11.20;97.70;;;;;;4993030;28;20042;-70
2021/09/03 03:30:29;;;;;;;49.43;21.90;;;11.20;97.70;;;;;;4993487;28;20057;-70
2021/09/03 03:32:54;;;;;;;49.77;21.87;;;11.20;97.70;;;;;;4993829;28;20439;-70
2021/09/03 03:35:22;;;;;;;42.67;21.67;;;11.20;97.80;;;;;;4992554;28;20085;-71
2021/09/03 03:37:48;;;;;;;39.33;19.80;;;11.20;97.90;;;;;;4993481;28;20053;-70
2021/09/03 03:40:14;;;;;;;29.03;16.90;;;11.20;98.00;;;;;;4993129;28;20054;-70
2021/09/03 03:42:39;;;;;;;22.60;14.30;;;11.20;98.00;;;;;;4992824;28;20066;-70
2021/09/03 03:45:05;;;;;;;22.70;14.87;;;11.20;98.00;;;;;;4993666;28;20064;-70
2021/09/03 03:47:31;;;;;;;25.90;16.53;;;11.30;97.90;;;;;;4991837;28;20046;-71
2021/09/03 03:49:57;;;;;;;28.60;15.90;;;11.20;97.90;;;;;;4991336;28;20038;-70
2021/09/03 03:52:22;;;;;;;31.27;17.63;;;11.30;97.80;;;;;;4993119;28;20057;-70
2021/09/03 03:54:48;;;;;;;29.07;16.93;;;11.30;97.80;;;;;;4992240;28;20436;-70
2021/09/03 03:57:13;;;;;;;25.23;15.43;;;11.30;97.90;;;;;;4992409;28;20125;-70
2021/09/03 03:59:39;;;;;;;23.67;15.70;;;11.30;97.90;;;;;;4993177;28;20043;-70
2021/09/03 04:02:04;;;;;;;28.20;17.60;;;11.30;97.90;;;;;;4991286;28;20410;-70
2021/09/03 04:04:30;;;;;;;30.07;17.97;;;11.30;97.90;;;;;;4992989;28;20096;-70
2021/09/03 04:06:55;;;;;;;25.20;16.57;;;11.40;97.90;;;;;;4993230;28;20065;-70
2021/09/03 04:09:21;;;;;;;28.03;16.37;;;11.30;97.90;;;;;;4990956;28;20106;-70
2021/09/03 04:11:47;;;;;;;23.97;15.20;;;11.30;97.90;;;;;;4993030;28;20054;-70
2021/09/03 04:14:15;;;;;;;27.23;15.47;;;11.30;97.90;;;;;;4991607;28;20481;-71
2021/09/03 04:16:41;;;;;;;27.60;17.63;;;11.30;97.90;;;;;;4992702;28;20049;-70
2021/09/03 04:19:06;;;;;;;27.10;16.80;;;11.30;97.80;;;;;;4992630;28;20440;-70
2021/09/03 04:21:32;;;;;;;26.53;16.43;;;11.20;97.90;;;;;;4992920;28;20049;-71
2021/09/03 04:23:57;;;;;;;28.57;17.93;;;11.30;97.90;;;;;;4991100;28;20069;-70
2021/09/03 04:26:23;;;;;;;26.37;16.53;;;11.20;97.80;;;;;;4992255;28;20043;-70
2021/09/03 04:28:48;;;;;;;28.63;17.87;;;11.20;97.80;;;;;;4992563;28;20049;-70
2021/09/03 04:31:14;;;;;;;27.23;17.07;;;11.20;97.80;;;;;;4991675;28;20050;-70
2021/09/03 04:33:41;;;;;;;27.33;16.83;;;11.20;97.70;;;;;;4992071;28;20046;-69
2021/09/03 04:36:07;;;;;;;23.93;15.07;;;11.20;97.70;;;;;;4991154;28;20397;-70
2021/09/03 04:38:35;;;;;;;25.77;16.37;;;11.20;97.80;;;;;;4992447;28;20050;-70
2021/09/03 04:41:01;;;;;;;37.37;18.90;;;11.20;97.80;;;;;;4991639;28;20467;-70
2021/09/03 04:43:27;;;;;;;33.23;17.67;;;11.20;97.80;;;;;;4992402;28;20153;-70
2021/09/03 04:45:52;;;;;;;25.13;16.57;;;11.20;97.90;;;;;;4990557;28;20049;-69
2021/09/03 04:48:18;;;;;;;30.50;16.57;;;11.20;97.90;;;;;;4991906;28;20100;-70
2021/09/03 04:50:43;;;;;;;24.67;16.53;;;11.20;97.80;;;;;;4992564;28;20050;-69
2021/09/03 04:53:09;;;;;;;28.43;16.57;;;11.20;97.80;;;;;;4990819;28;20390;-69
2021/09/03 04:55:35;;;;;;;26.33;15.97;;;11.10;97.80;;;;;;4992879;28;20093;-69
2021/09/03 04:58:00;;;;;;;29.97;17.43;;;11.20;97.90;;;;;;4992520;28;20494;-69
2021/09/03 05:00:26;;;;;;;23.67;16.20;;;11.20;97.90;;;;;;4991800;28;20062;-68
2021/09/03 05:02:52;;;;;;;30.37;17.60;;;11.20;97.90;;;;;;4992792;28;20061;-69
2021/09/03 05:05:18;;;;;;;29.67;18.20;;;11.20;97.70;;;;;;4990196;28;20050;-70
2021/09/03 05:07:44;;;;;;;37.67;22.57;;;11.20;97.80;;;;;;4992370;28;20491;-70
2021/09/03 05:10:10;;;;;;;35.57;20.97;;;11.20;97.90;;;;;;4990292;28;20050;-70
2021/09/03 05:12:38;;;;;;;29.70;17.77;;;11.30;97.90;;;;;;4989870;28;20546;-69
2021/09/03 05:15:11;;;;;;;27.40;17.73;;;11.30;97.90;;;;;;4992551;28;20049;-70
2021/09/03 05:17:38;;;;;;;29.57;18.43;;;11.30;97.90;;;;;;4992220;28;20039;-70
2021/09/03 05:20:05;;;;;;;31.50;19.53;;;11.30;97.80;;;;;;4994116;28;20042;-70
2021/09/03 05:22:33;;;;;;;29.47;16.50;;;11.30;97.80;;;;;;4994724;28;20085;-70
2021/09/03 05:24:59;;;;;;;31.70;18.57;;;11.30;97.80;;;;;;4994974;28;20121;-70
2021/09/03 05:27:25;;;;;;;28.90;18.57;;;11.20;97.70;;;;;;4994430;28;20097;-70
2021/09/03 05:29:50;;;;;;;30.47;18.53;;;11.20;97.70;;;;;;4995148;28;20046;-70
2021/09/03 05:32:16;;;;;;;30.63;17.40;;;11.20;97.80;;;;;;4992744;28;20044;-69
2021/09/03 05:34:42;;;;;;;29.07;18.20;;;11.20;97.70;;;;;;4995369;28;20141;-70
2021/09/03 05:37:08;;;;;;;30.20;18.00;;;11.20;97.80;;;;;;4994553;28;20088;-70
2021/09/03 05:39:34;;;;;;;31.70;18.37;;;11.20;97.90;;;;;;4995874;28;20053;-68
2021/09/03 05:41:59;;;;;;;40.57;18.43;;;11.20;97.90;;;;;;4993628;28;20400;-68
2021/09/03 05:44:25;;;;;;;36.40;21.30;;;11.30;97.90;;;;;;4993526;28;20046;-69
2021/09/03 05:46:51;;;;;;;36.80;20.57;;;11.30;97.90;;;;;;4995474;28;20038;-69
2021/09/03 05:49:18;;;;;;;41.97;24.03;;;11.40;98.10;;;;;;4994591;28;20232;-69
2021/09/03 05:51:44;;;;;;;37.27;20.40;;;11.40;98.20;;;;;;4995198;28;20030;-69
2021/09/03 05:54:09;;;;;;;33.87;20.90;;;11.40;98.20;;;;;;4995319;28;20496;-69
2021/09/03 05:56:36;;;;;;;35.90;20.77;;;11.50;98.30;;;;;;4994580;28;20046;-69
2021/09/03 05:59:03;;;;;;;32.33;18.63;;;11.50;98.30;;;;;;4993310;28;20093;-69
2021/09/03 06:01:29;;;;;;;32.23;18.90;;;11.60;98.30;;;;;;4993965;28;20053;-69
2021/09/03 06:03:55;;;;;;;34.73;20.17;;;11.60;98.20;;;;;;4995140;28;20039;-70
2021/09/03 06:06:20;;;;;;;34.27;20.03;;;11.60;98.20;;;;;;4994626;28;20137;-70
2021/09/03 06:08:46;;;;;;;32.10;18.87;;;11.70;98.30;;;;;;4993246;28;20047;-70
2021/09/03 06:11:12;;;;;;;27.60;19.50;;;11.70;98.30;;;;;;4994668;28;20050;-68
2021/09/03 06:13:38;;;;;;;30.30;18.13;;;11.80;98.30;;;;;;4995112;28;20050;-67
2021/09/03 06:16:04;;;;;;;34.67;20.27;;;11.80;98.40;;;;;;4994273;28;20049;-68
2021/09/03 06:18:29;;;;;;;28.97;17.13;;;11.90;98.50;;;;;;4993159;28;20165;-68
2021/09/03 06:20:55;;;;;;;31.77;18.33;;;12.00;98.60;;;;;;4994862;28;20540;-69
2021/09/03 06:23:20;;;;;;;34.70;18.53;;;12.10;98.60;;;;;;4993608;28;20422;-69
2021/09/03 06:25:46;;;;;;;35.40;19.73;;;12.20;98.60;;;;;;4993767;28;20521;-68
2021/09/03 06:28:12;;;;;;;28.03;18.60;;;12.20;98.70;;;;;;4994104;28;20081;-69
2021/09/03 06:30:39;;;;;;;29.17;17.77;;;12.20;98.70;;;;;;4993082;28;20506;-69
2021/09/03 06:33:05;;;;;;;30.50;19.03;;;12.30;98.80;;;;;;4994692;28;20038;-69
2021/09/03 06:35:30;;;;;;;30.37;20.40;;;12.40;98.80;;;;;;4994457;28;20102;-69
2021/09/03 06:37:56;;;;;;;31.77;19.33;;;12.40;98.80;;;;;;4992624;28;20087;-69
2021/09/03 06:40:25;;;;;;;28.97;18.50;;;12.50;98.90;;;;;;4994780;28;20046;-69
2021/09/03 06:42:50;;;;;;;32.00;18.40;;;12.60;98.90;;;;;;4994655;28;20213;-69
2021/09/03 06:45:16;;;;;;;37.30;21.37;;;12.70;99.00;;;;;;4993731;28;20121;-69
2021/09/03 06:47:41;;;;;;;32.20;19.60;;;12.80;99.00;;;;;;4994428;28;20049;-69
2021/09/03 06:50:09;;;;;;;35.70;19.90;;;12.90;99.10;;;;;;4992848;28;20050;-69
2021/09/03 06:52:34;;;;;;;34.20;19.90;;;13.00;99.10;;;;;;4993704;28;20081;-69
2021/09/03 06:55:02;;;;;;;30.83;18.20;;;13.10;99.20;;;;;;4994545;28;20069;-69
2021/09/03 06:57:28;;;;;;;32.47;21.60;;;13.20;99.40;;;;;;4993919;28;20057;-70
2021/09/03 06:59:54;;;;;;;31.80;19.33;;;13.30;99.40;;;;;;4993594;28;20042;-70
2021/09/03 07:02:19;;;;;;;35.97;21.93;;;13.40;99.50;;;;;;4993653;28;20491;-69
2021/09/03 07:04:45;;;;;;;32.77;19.63;;;13.50;99.50;;;;;;4993847;28;20042;-70
2021/09/03 07:07:11;;;;;;;31.63;19.30;;;13.60;99.50;;;;;;4993501;28;20056;-69
2021/09/03 07:09:36;;;;;;;31.50;19.13;;;13.70;99.50;;;;;;4994431;28;20057;-69
2021/09/03 07:12:02;;;;;;;31.37;18.40;;;13.80;99.50;;;;;;4992225;28;20045;-69
2021/09/03 07:14:27;;;;;;;30.93;17.30;;;13.90;99.50;;;;;;4993476;28;20050;-69
2021/09/03 07:16:53;;;;;;;32.27;17.63;;;14.00;99.50;;;;;;4992763;28;20085;-69
2021/09/03 07:19:19;;;;;;;29.20;19.77;;;14.10;99.40;;;;;;4991685;28;20125;-69
2021/09/03 07:21:45;;;;;;;28.50;16.17;;;14.30;99.40;;;;;;4992684;28;20409;-69
2021/09/03 07:24:11;;;;;;;26.27;16.57;;;14.40;99.30;;;;;;4993029;28;20046;-70
2021/09/03 07:26:37;;;;;;;26.70;16.40;;;14.50;99.30;;;;;;4990829;28;20445;-69
2021/09/03 07:29:04;;;;;;;22.47;14.33;;;14.60;99.20;;;;;;4993422;28;20035;-69
2021/09/03 07:31:33;;;;;;;22.03;15.50;;;14.70;99.10;;;;;;4991327;28;20076;-69
2021/09/03 07:34:00;;;;;;;29.30;16.10;;;14.70;99.00;;;;;;4989961;28;20073;-69
2021/09/03 07:36:25;;;;;;;26.27;16.00;;;14.80;98.90;;;;;;4991097;28;20432;-69
2021/09/03 07:39:01;;;;;;;23.40;14.03;;;14.90;98.90;;;;;;4989311;28;20047;-69
2021/09/03 07:41:26;;;;;;;28.43;15.50;;;15.00;98.90;;;;;;4991193;28;20046;-69
2021/09/03 07:43:52;;;;;;;27.13;16.03;;;15.10;98.80;;;;;;4992682;28;20045;-69
2021/09/03 07:46:18;;;;;;;25.43;14.43;;;15.20;98.80;;;;;;4992419;28;20042;-70
2021/09/03 07:48:43;;;;;;;26.20;16.07;;;15.30;98.60;;;;;;4991310;28;20042;-69
2021/09/03 07:51:09;;;;;;;23.57;14.30;;;15.40;98.50;;;;;;4991524;28;20041;-70
2021/09/03 07:53:35;;;;;;;27.40;15.57;;;15.50;98.40;;;;;;4991451;28;20038;-69
2021/09/03 07:56:03;;;;;;;23.33;14.57;;;15.50;98.20;;;;;;4992039;28;20480;-69
2021/09/03 07:58:31;;;;;;;23.57;14.43;;;15.60;98.00;;;;;;4991692;28;20487;-69
2021/09/03 08:01:01;;;;;;;21.60;13.57;;;15.70;97.80;;;;;;4990149;28;20073;-69
2021/09/03 08:03:28;;;;;;;20.73;12.33;;;15.80;98.10;;;;;;4992001;28;20042;-69
2021/09/03 08:05:54;;;;;;;22.10;11.33;;;15.80;97.50;;;;;;4992786;28;20180;-69
2021/09/03 08:08:22;;;;;;;21.30;11.60;;;15.90;97.30;;;;;;4991296;28;20038;-69
2021/09/03 08:10:48;;;;;;;18.23;10.53;;;16.00;97.10;;;;;;4991028;28;20038;-69
2021/09/03 08:13:14;;;;;;;21.17;11.10;;;16.10;96.70;;;;;;4992234;28;20038;-70
2021/09/03 08:15:41;;;;;;;22.40;12.57;;;16.10;96.40;;;;;;4990622;28;20050;-70
2021/09/03 08:18:07;;;;;;;20.47;11.13;;;16.20;96.30;;;;;;4991909;28;20608;-70
2021/09/03 08:20:36;;;;;;;26.43;12.80;;;16.20;96.30;;;;;;4992900;28;20045;-71
2021/09/03 08:23:04;;;;;;;21.47;11.43;;;16.30;96.30;;;;;;4990817;28;20365;-71
2021/09/03 08:25:29;;;;;;;19.90;10.83;;;16.30;96.10;;;;;;4992495;28;20053;-71
2021/09/03 08:27:55;;;;;;;22.23;10.73;;;16.30;96.10;;;;;;4992726;28;20054;-71
2021/09/03 08:30:21;;;;;;;19.80;12.40;;;16.40;96.10;;;;;;4991475;28;20042;-70
2021/09/03 08:32:47;;;;;;;22.80;12.07;;;16.40;95.90;;;;;;4992630;28;20050;-71
2021/09/03 08:35:13;;;;;;;19.20;11.70;;;16.50;95.70;;;;;;4992378;28;20125;-70
2021/09/03 08:37:40;;;;;;;19.53;12.33;;;16.50;95.60;;;;;;4991850;28;20450;-70
2021/09/03 08:40:08;;;;;;;25.40;12.97;;;16.60;95.50;;;;;;4993159;28;20050;-70
2021/09/03 08:42:37;;;;;;;21.80;12.13;;;16.60;95.30;;;;;;4992418;28;20050;-71
2021/09/03 08:45:04;;;;;;;21.67;12.07;;;16.60;95.30;;;;;;4991846;28;20047;-72
2021/09/03 08:47:32;;;;;;;23.10;12.83;;;16.60;95.30;;;;;;4992589;28;20096;-71
2021/09/03 08:49:57;;;;;;;28.17;13.17;;;16.70;95.30;;;;;;4992509;28;20558;-71
2021/09/03 08:52:23;;;;;;;23.57;12.87;;;16.60;94.90;;;;;;4991460;28;20146;-71
2021/09/03 08:54:49;;;;;;;22.30;11.90;;;16.60;94.70;;;;;;4992263;28;20054;-72
2021/09/03 08:57:14;;;;;;;26.27;13.43;;;16.60;94.70;;;;;;4991431;28;20408;-71
2021/09/03 08:59:41;;;;;;;21.97;12.50;;;16.60;94.70;;;;;;4989768;28;20117;-70
2021/09/03 09:02:17;;;;;;;26.13;12.90;;;16.60;94.70;;;;;;4990594;28;20043;-70
2021/09/03 09:04:45;;;;;;;23.87;11.70;;;16.60;95.10;;;;;;4988633;28;20161;-70
2021/09/03 09:07:12;;;;;;;26.50;13.07;;;16.60;94.50;;;;;;4991742;28;20491;-71
2021/09/03 09:09:47;;;;;;;24.60;12.80;;;16.60;94.30;;;;;;4992118;28;20046;-70
2021/09/03 09:12:14;;;;;;;28.77;13.20;;;16.60;94.20;;;;;;4991331;28;20042;-70
2021/09/03 09:15:08;;;;;;;21.77;12.20;;;16.60;94.20;;;;;;4992374;28;20072;-70
2021/09/03 09:17:40;;;;;;;18.90;12.53;;;16.60;94.10;;;;;;4990748;28;20377;-70
2021/09/03 09:20:14;;;;;;;24.57;13.13;;;16.60;94.10;;;;;;4990417;28;20046;-70
2021/09/03 09:23:00;;;;;;;24.63;14.07;;;16.60;94.00;;;;;;4991873;28;20053;-70
2021/09/03 09:25:32;;;;;;;24.13;14.80;;;16.70;93.70;;;;;;4991538;28;20196;-70
2021/09/03 09:28:16;;;;;;;25.93;13.60;;;16.60;93.80;;;;;;4992152;28;20061;-70
2021/09/03 09:30:43;;;;;;;23.67;13.10;;;16.70;93.70;;;;;;4992093;28;20455;-70
2021/09/03 09:33:21;;;;;;;28.43;15.03;;;16.60;93.80;;;;;;4991043;28;20046;-70
2021/09/03 09:35:54;;;;;;;25.83;14.87;;;16.70;93.70;;;;;;4991991;28;20046;-70
2021/09/03 09:38:32;;;;;;;25.53;15.50;;;16.60;93.60;;;;;;4990495;28;20492;-70
2021/09/03 09:41:00;;;;;;;24.77;14.97;;;16.70;93.60;;;;;;4991520;28;20038;-70
2021/09/03 09:43:36;;;;;;;24.30;15.30;;;16.60;93.70;;;;;;4990693;28;20499;-71
2021/09/03 09:46:20;;;;;;;21.77;13.83;;;16.70;93.70;;;;;;4990508;28;20104;-70
2021/09/03 09:48:49;;;;;;;23.00;14.77;;;16.70;93.50;;;;;;4991269;28;20053;-70
2021/09/03 09:51:21;;;;;;;22.13;13.60;;;16.70;93.50;;;;;;4990453;28;20491;-71
2021/09/03 09:54:06;;;;;;;22.23;14.40;;;16.70;93.50;;;;;;4991588;28;20050;-70
2021/09/03 09:56:34;;;;;;;20.33;13.00;;;16.70;93.40;;;;;;4990757;28;20121;-70
2021/09/03 09:59:01;;;;;;;22.27;13.93;;;16.70;93.50;;;;;;4990459;28;20133;-70
2021/09/03 10:01:28;;;;;;;24.03;13.97;;;16.80;93.40;;;;;;4989260;28;20120;-69
2021/09/03 10:03:55;;;;;;;26.93;13.83;;;16.90;93.40;;;;;;4991912;28;20113;-69
2021/09/03 10:06:23;;;;;;;19.77;12.83;;;16.90;93.20;;;;;;4995185;28;20046;-70
2021/09/03 10:08:50;;;;;;;22.67;12.70;;;16.90;93.20;;;;;;4993811;28;20050;-70
2021/09/03 10:11:20;;;;;;;21.47;11.80;;;16.90;93.20;;;;;;4992924;28;20046;-70
2021/09/03 10:13:46;;;;;;;18.93;10.83;;;16.90;93.00;;;;;;4993500;28;20042;-70
2021/09/03 10:16:12;;;;;;;16.90;10.30;;;17.00;92.90;;;;;;4993553;28;20046;-71
2021/09/03 10:18:44;;;;;;;16.43;10.47;;;17.00;92.70;;;;;;4994940;28;20053;-70
2021/09/03 10:21:11;;;;;;;17.00;11.90;;;17.00;92.60;;;;;;4994056;28;20061;-70
2021/09/03 10:24:22;;;;;;;17.30;10.60;;;17.00;92.50;;;;;;4994129;28;20054;-70
2021/09/03 10:26:48;;;;;;;20.80;10.20;;;17.00;92.30;;;;;;4993266;28;20510;-71
2021/09/03 10:29:21;;;;;;;17.03;9.07;;;17.10;92.30;;;;;;4992296;28;20043;-69
2021/09/03 10:32:05;;;;;;;17.53;10.27;;;17.10;92.40;;;;;;4994528;28;20050;-70
2021/09/03 10:34:43;;;;;;;19.37;11.43;;;17.10;91.80;;;;;;4992949;28;20415;-71
2021/09/03 10:37:15;;;;;;;13.43;9.00;;;17.20;91.90;;;;;;4993619;28;20402;-70
2021/09/03 10:39:48;;;;;;;13.73;9.30;;;17.30;91.80;;;;;;4994518;28;20062;-70
2021/09/03 10:42:33;;;;;;;17.73;10.33;;;17.40;91.90;;;;;;4991535;28;20128;-69
2021/09/03 10:45:02;;;;;;;13.10;8.90;;;17.40;91.60;;;;;;4992480;28;20047;-70
2021/09/03 10:47:34;;;;;;;16.60;9.83;;;17.40;91.60;;;;;;4992691;28;20085;-70
2021/09/03 10:50:08;;;;;;;;;;;17.40;91.30;;;;;;4991996;28;20558;-70
2021/09/03 10:52:33;;;;;;;16.20;9.73;;;17.30;91.30;;;;;;4992091;28;19921;-70
2021/09/03 10:54:59;;;;;;;15.10;9.37;;;17.40;91.70;;;;;;4993306;28;20080;-70
2021/09/03 10:57:25;;;;;;;15.47;9.07;;;17.40;91.60;;;;;;4991214;28;20123;-70
2021/09/03 11:00:16;;;;;;;16.30;10.07;;;17.40;91.40;;;;;;4992723;28;20042;-70
2021/09/03 11:02:42;;;;;;;15.20;9.70;;;17.50;91.00;;;;;;4993001;28;20138;-70
2021/09/03 11:05:12;;;;;;;16.53;10.00;;;17.50;91.00;;;;;;4991655;28;20125;-71
2021/09/03 11:07:43;;;;;;;16.42;9.30;;;17.60;90.60;;;;;;4994012;28;20090;-70
2021/09/03 11:10:20;;;;;;;16.15;10.23;;;17.60;90.50;;;;;;4992666;28;20057;-70
2021/09/03 11:12:53;;;;;;;19.10;10.83;;;17.70;90.50;;;;;;4993141;28;20054;-71
2021/09/03 11:15:19;;;;;;;14.77;10.97;;;17.70;90.40;;;;;;4992066;28;20117;-71
2021/09/03 11:17:46;;;;;;;17.00;10.83;;;17.70;90.30;;;;;;4991978;28;20088;-70
2021/09/03 11:20:14;;;;;;;15.07;10.67;;;17.90;90.30;;;;;;4992618;28;20452;-70
2021/09/03 11:22:40;;;;;;;14.63;11.70;;;18.00;90.10;;;;;;4992215;28;20483;-70
2021/09/03 11:25:07;;;;;;;13.37;10.63;;;18.10;89.40;;;;;;4992872;28;20050;-71
2021/09/03 11:27:35;;;;;;;17.00;12.33;;;18.20;89.20;;;;;;4993843;28;20046;-71
2021/09/03 11:30:09;;;;;;;18.30;11.50;;;18.20;88.80;;;;;;4992071;28;20514;-69
2021/09/03 11:32:38;;;;;;;19.20;12.20;;;18.20;88.50;;;;;;4991781;28;20563;-70
2021/09/03 11:35:09;;;;;;;18.33;11.47;;;18.30;88.40;;;;;;4991747;28;20065;-70
2021/09/03 11:37:44;;;;;;;14.85;11.20;;;18.40;88.50;;;;;;4993859;28;20065;-68
2021/09/03 11:40:14;;;;;;;17.60;11.27;;;18.50;87.90;;;;;;4992539;28;20053;-69
2021/09/03 11:42:50;;;;;;;24.43;12.47;;;18.60;86.90;;;;;;4994141;28;20058;-70
2021/09/03 11:45:21;;;;;;;17.67;12.93;;;18.40;86.80;;;;;;4993292;28;20046;-70
2021/09/03 11:47:48;;;;;;;19.15;11.90;;;18.40;86.90;;;;;;4992711;28;20469;-70
2021/09/03 11:50:30;;;;;;;16.93;11.57;;;18.30;87.20;;;;;;4993108;28;20101;-70
2021/09/03 11:52:59;;;;;;;17.00;11.00;;;18.30;87.90;;;;;;4991991;28;20048;-70
2021/09/03 11:55:25;;;;;;;21.10;11.53;;;18.30;88.50;;;;;;4992043;28;20057;-70
2021/09/03 11:58:02;;;;;;;17.17;11.00;;;18.20;88.60;;;;;;4993120;28;20046;-70
2021/09/03 12:00:34;;;;;;;18.40;10.83;;;18.20;88.20;;;;;;4992249;28;20058;-70
2021/09/03 12:03:03;;;;;;;20.47;11.13;;;18.20;87.90;;;;;;4993267;28;20049;-69
2021/09/03 12:05:29;;;;;;;15.63;10.50;;;18.20;87.90;;;;;;4992777;28;20035;-70
2021/09/03 12:08:12;;;;;;;14.90;10.13;;;18.20;87.50;;;;;;4991007;28;20049;-70
2021/09/03 12:10:41;;;;;;;16.63;11.03;;;18.30;86.70;;;;;;4992990;28;20069;-69
2021/09/03 12:13:19;;;;;;;16.57;10.90;;;18.50;86.10;;;;;;4992892;28;20082;-69
2021/09/03 12:15:54;;;;;;;17.13;10.67;;;18.60;85.20;;;;;;4991071;28;20089;-69
2021/09/03 12:18:24;;;;;;;16.90;10.23;;;18.80;84.60;;;;;;4991100;28;20046;-69
2021/09/03 12:21:02;;;;;;;15.53;10.77;;;18.80;83.90;;;;;;4992819;28;20057;-69
2021/09/03 12:23:33;;;;;;;17.63;9.93;;;18.90;84.20;;;;;;4990446;28;20100;-69
2021/09/03 12:26:04;;;;;;;20.57;10.80;;;19.00;84.30;;;;;;4992534;28;20077;-69
2021/09/03 12:28:30;;;;;;;21.37;12.17;;;19.00;83.60;;;;;;4990245;28;20054;-70
2021/09/03 12:30:56;;;;;;;19.90;11.90;;;19.00;83.90;;;;;;4991121;28;20344;-70